| Date | Time | Temp. (oF) | Dew Point (oF) | Rel. Hum. (%) | Press. (in.) | Wind Dir. | Wind Speed (mph) | Hourly Rainfall (in.) |
|
|---|---|---|---|---|---|---|---|---|---|
| 1 | 07/31 | 00:00 | 75 | 72 | 93 | 29.70 | SW | 0 | 0.00 |
| 2 | 07/30 | 23:00 | 75 | 72 | 93 | 29.69 | WSW | 0 | 0.00 |
| 3 | 07/30 | 22:00 | 76 | 71 | 87 | 29.71 | SSE | 0 | 0.00 |
| 4 | 07/30 | 21:00 | 77 | 71 | 84 | 29.70 | SE | 0 | 0.00 |
| 5 | 07/30 | 20:00 | 78 | 71 | 81 | 29.71 | SSE | 2 | 0.00 |
| 6 | 07/30 | 19:00 | 80 | 72 | 78 | 29.71 | NE | 3 | 0.00 |
| 7 | 07/30 | 18:00 | 80 | 75 | 85 | 29.72 | SW | 0 | 0.00 |
| 8 | 07/30 | 17:00 | 78 | 72 | 83 | 29.72 | SW | 8 | 0.00 |
| 9 | 07/30 | 16:00 | 86 | 72 | 64 | 29.72 | S | 3 | 0.00 |
| 10 | 07/30 | 15:00 | 87 | 71 | 60 | 29.73 | SSE | 10 | 0.00 |
| 11 | 07/30 | 14:00 | 88 | 70 | 57 | 29.76 | SSE | 6 | 0.00 |
| 12 | 07/30 | 13:00 | 87 | 71 | 60 | 29.78 | SSW | 0 | 0.00 |
| 13 | 07/30 | 12:00 | 86 | 73 | 67 | 29.81 | S | 5 | 0.00 |
| 14 | 07/30 | 11:00 | 84 | 73 | 72 | 29.82 | S | 0 | 0.00 |
| 15 | 07/30 | 10:00 | 81 | 74 | 81 | 29.83 | SSE | 0 | 0.00 |
| 16 | 07/30 | 09:00 | 76 | 72 | 88 | 29.85 | SSE | 0 | 0.00 |
| 17 | 07/30 | 08:00 | 71 | 69 | 96 | 29.85 | ENE | 0 | 0.00 |
| 18 | 07/30 | 07:00 | 68 | 67 | 98 | 29.85 | NE | 0 | 0.00 |
| 19 | 07/30 | 06:00 | 68 | 67 | 98 | 29.85 | ENE | 1 | 0.00 |
| 20 | 07/30 | 05:00 | 69 | 67 | 95 | 29.85 | NE | 0 | 0.00 |
| 21 | 07/30 | 04:00 | 69 | 67 | 95 | 29.84 | NE | 0 | 0.00 |
| 22 | 07/30 | 03:00 | 70 | 67 | 92 | 29.86 | S | 0 | 0.00 |
| 23 | 07/30 | 02:00 | 71 | 67 | 88 | 29.87 | S | 0 | 0.00 |
| 24 | 07/30 | 01:00 | 74 | 67 | 81 | 29.87 | WSW | 0 | 0.00 |